createdAt,value
2022-10-11T00:00:45.432Z,99.90
2022-10-11T00:03:32.486Z,99.90
2022-10-11T00:05:59.734Z,99.90
2022-10-11T00:08:26.786Z,99.90
2022-10-11T00:11:02.110Z,99.90
2022-10-11T00:13:29.640Z,99.90
2022-10-11T00:15:57.390Z,99.90
2022-10-11T00:18:44.967Z,99.90
2022-10-11T00:21:15.386Z,99.90
2022-10-11T00:23:43.646Z,99.90
2022-10-11T00:26:11.345Z,99.90
2022-10-11T00:28:39.722Z,99.90
2022-10-11T00:31:12.120Z,99.90
2022-10-11T00:33:42.707Z,99.90
2022-10-11T00:36:10.676Z,99.90
2022-10-11T00:38:42.836Z,99.90
2022-10-11T00:41:10.988Z,99.90
2022-10-11T00:43:41.094Z,99.90
2022-10-11T00:46:30.143Z,99.90
2022-10-11T00:49:02.857Z,99.90
2022-10-11T00:51:50.980Z,99.90
2022-10-11T00:54:22.256Z,99.90
2022-10-11T00:57:03.156Z,99.90
2022-10-11T00:59:37.830Z,99.90
2022-10-11T01:02:06.672Z,99.90
2022-10-11T01:04:34.887Z,99.90
2022-10-11T01:07:02.593Z,99.90
2022-10-11T01:09:30.415Z,99.90
2022-10-11T01:12:03.057Z,99.90
2022-10-11T01:15:14.348Z,99.90
2022-10-11T01:18:02.790Z,99.90
2022-10-11T01:20:57.356Z,99.90
2022-10-11T01:23:40.137Z,99.90
2022-10-11T01:26:37.319Z,99.90
2022-10-11T01:29:30.476Z,99.90
2022-10-11T01:32:21.050Z,99.90
2022-10-11T01:35:14.351Z,99.90
2022-10-11T01:37:53.806Z,99.90
2022-10-11T01:40:33.242Z,99.90
2022-10-11T01:43:02.356Z,99.90
2022-10-11T01:45:31.191Z,99.90
2022-10-11T01:48:09.386Z,99.90
2022-10-11T01:50:56.221Z,99.90
2022-10-11T01:53:57.237Z,99.90
2022-10-11T01:56:39.617Z,99.90
2022-10-11T01:59:27.668Z,99.90
2022-10-11T02:02:04.118Z,99.90
2022-10-11T02:04:44.200Z,99.90
2022-10-11T02:07:29.197Z,99.90
2022-10-11T02:09:59.672Z,99.90
2022-10-11T02:12:42.124Z,99.90
2022-10-11T02:15:14.813Z,99.90
2022-10-11T02:17:49.985Z,99.90
2022-10-11T02:20:21.635Z,99.90
2022-10-11T02:22:53.515Z,99.90
2022-10-11T02:25:30.594Z,99.90
2022-10-11T02:28:01.204Z,99.90
2022-10-11T02:30:30.580Z,99.90
2022-10-11T02:32:58.819Z,99.90
2022-10-11T02:35:29.476Z,99.90
2022-10-11T02:38:20.643Z,99.90
2022-10-11T02:40:56.513Z,99.90
2022-10-11T02:43:29.366Z,99.90
2022-10-11T02:46:02.755Z,99.90
2022-10-11T02:48:32.425Z,99.90
2022-10-11T02:50:59.804Z,99.90
2022-10-11T02:53:27.179Z,99.90
2022-10-11T02:55:57.153Z,99.90
2022-10-11T02:58:26.922Z,99.90
2022-10-11T03:03:36.169Z,99.90
2022-10-11T03:06:06.297Z,99.90
2022-10-11T03:08:36.316Z,99.90
2022-10-11T03:11:05.823Z,99.90
2022-10-11T03:13:33.198Z,99.90
2022-10-11T03:16:03.660Z,99.90
2022-10-11T03:18:33.652Z,99.90
2022-10-11T03:21:01.163Z,99.90
2022-10-11T03:23:28.423Z,99.90
2022-10-11T03:25:55.485Z,99.90
2022-10-11T03:28:25.333Z,99.90
2022-10-11T03:30:54.652Z,99.90
2022-10-11T03:33:24.318Z,99.90
2022-10-11T03:35:51.681Z,99.90
2022-10-11T03:38:21.523Z,99.90
2022-10-11T03:40:49.379Z,99.90
2022-10-11T03:43:19.339Z,99.90
2022-10-11T03:45:46.649Z,99.90
2022-10-11T03:48:13.787Z,99.90
2022-10-11T03:50:41.118Z,99.90
2022-10-11T03:53:08.893Z,99.90
2022-10-11T03:55:39.378Z,99.90
2022-10-11T03:58:07.231Z,99.90
2022-10-11T04:00:39.396Z,99.90
2022-10-11T04:03:06.479Z,99.90
2022-10-11T04:05:33.780Z,99.90
2022-10-11T04:08:00.821Z,99.90
2022-10-11T04:10:30.429Z,99.90
2022-10-11T04:12:57.881Z,99.90
2022-10-11T04:15:25.102Z,99.90
2022-10-11T04:17:52.299Z,99.90
2022-10-11T04:20:19.718Z,99.90
2022-10-11T04:22:46.941Z,99.90
2022-10-11T04:25:16.365Z,99.90
2022-10-11T04:27:46.225Z,99.90
2022-10-11T04:30:13.739Z,99.90
2022-10-11T04:32:43.526Z,99.90
2022-10-11T04:35:11.825Z,99.90
2022-10-11T04:37:41.145Z,99.90
2022-10-11T04:40:09.236Z,99.90
2022-10-11T04:42:36.804Z,99.90
2022-10-11T04:45:04.063Z,99.90
2022-10-11T04:47:34.427Z,99.90
2022-10-11T04:50:02.123Z,99.90
2022-10-11T04:52:29.334Z,99.90
2022-10-11T04:54:56.554Z,99.90
2022-10-11T04:57:24.186Z,99.90
2022-10-11T04:59:53.938Z,99.90
2022-10-11T05:02:23.636Z,99.90
2022-10-11T05:04:53.703Z,99.90
2022-10-11T05:07:20.674Z,99.90
2022-10-11T05:09:49.891Z,99.90
2022-10-11T05:12:17.275Z,99.90
2022-10-11T05:14:44.373Z,99.90
2022-10-11T05:17:13.902Z,99.90
2022-10-11T05:19:43.766Z,99.90
2022-10-11T05:22:15.655Z,99.90
2022-10-11T05:24:45.574Z,99.90
2022-10-11T05:27:12.576Z,99.90
2022-10-11T05:29:39.628Z,99.90
2022-10-11T05:32:09.767Z,99.90
2022-10-11T05:34:36.737Z,99.90
2022-10-11T05:37:04.013Z,99.90
2022-10-11T05:39:31.397Z,99.90
2022-10-11T05:41:58.476Z,99.90
2022-10-11T05:44:28.175Z,99.90
2022-10-11T05:46:55.435Z,99.90
2022-10-11T05:49:22.501Z,99.90
2022-10-11T05:51:52.199Z,99.90
2022-10-11T05:54:19.473Z,99.90
2022-10-11T05:56:46.634Z,99.90
2022-10-11T05:59:16.418Z,99.90
2022-10-11T06:01:46.332Z,99.90
2022-10-11T06:04:13.413Z,99.90
2022-10-11T06:06:40.867Z,99.90
2022-10-11T06:09:08.680Z,99.90
2022-10-11T06:11:36.009Z,99.90
2022-10-11T06:14:03.487Z,99.90
2022-10-11T06:16:30.955Z,99.90
2022-10-11T06:18:58.398Z,99.90
2022-10-11T06:21:28.340Z,99.90
2022-10-11T06:24:01.137Z,99.90
2022-10-11T06:26:29.898Z,99.90
2022-10-11T06:28:57.732Z,99.90
2022-10-11T06:31:27.151Z,99.90
2022-10-11T06:33:58.765Z,99.90
2022-10-11T06:36:26.240Z,99.90
2022-10-11T06:38:54.740Z,99.90
2022-10-11T06:41:26.450Z,99.90
2022-10-11T06:43:53.770Z,99.90
2022-10-11T06:46:22.580Z,99.90
2022-10-11T06:48:50.779Z,99.90
2022-10-11T06:51:21.322Z,99.90
2022-10-11T06:53:55.880Z,99.90
2022-10-11T06:56:23.856Z,99.90
2022-10-11T06:58:50.895Z,99.90
2022-10-11T07:01:18.077Z,99.90
2022-10-11T07:03:45.501Z,97.60
2022-10-11T07:06:16.428Z,96.60
2022-10-11T07:08:43.721Z,97.80
2022-10-11T07:11:13.328Z,98.80
2022-10-11T07:13:43.184Z,99.50
2022-10-11T07:16:13.794Z,96.90
2022-10-11T07:18:41.080Z,88.10
2022-10-11T07:21:11.506Z,73.40
2022-10-11T07:23:39.273Z,59.60
2022-10-11T07:26:10.210Z,53.10
2022-10-11T07:28:38.565Z,48.10
2022-10-11T07:31:16.956Z,46.10
2022-10-11T07:33:49.523Z,44.00
2022-10-11T07:36:16.953Z,42.80
2022-10-11T07:38:46.364Z,41.60
2022-10-11T07:41:13.865Z,40.20
2022-10-11T07:43:43.654Z,39.70
2022-10-11T07:46:11.314Z,39.70
2022-10-11T07:48:41.748Z,38.80
2022-10-11T07:51:27.037Z,39.50
2022-10-11T07:53:58.068Z,38.80
2022-10-11T07:56:29.000Z,38.40
2022-10-11T07:59:00.919Z,39.10
2022-10-11T08:01:28.764Z,37.90
2022-10-11T08:03:56.305Z,37.80
2022-10-11T08:06:25.644Z,37.30
2022-10-11T08:08:52.724Z,37.50
2022-10-11T08:11:22.714Z,37.20
2022-10-11T08:13:52.887Z,37.60
2022-10-11T08:16:20.551Z,37.50
2022-10-11T08:18:47.986Z,37.20
2022-10-11T08:21:17.259Z,36.90
2022-10-11T08:23:44.584Z,36.70
2022-10-11T08:26:11.918Z,36.60
2022-10-11T08:28:39.575Z,35.90
2022-10-11T08:31:11.347Z,35.20
2022-10-11T08:33:38.406Z,34.90
2022-10-11T08:36:07.468Z,34.50
2022-10-11T08:38:36.869Z,34.30
2022-10-11T08:41:24.350Z,34.30
2022-10-11T08:44:02.430Z,34.10
2022-10-11T08:46:33.300Z,34.00
2022-10-11T08:49:02.195Z,33.80
2022-10-11T08:51:54.186Z,34.00
2022-10-11T08:54:39.633Z,33.80
2022-10-11T08:57:11.311Z,33.70
2022-10-11T08:59:45.206Z,33.80
2022-10-11T09:03:03.057Z,34.00
2022-10-11T09:05:32.354Z,33.80
2022-10-11T09:08:28.362Z,33.60
2022-10-11T09:11:14.015Z,33.10
2022-10-11T09:13:55.897Z,33.20
2022-10-11T09:16:41.251Z,33.30
2022-10-11T09:19:26.720Z,33.50
2022-10-11T09:22:21.093Z,33.70
2022-10-11T09:25:20.616Z,33.90
2022-10-11T09:28:03.258Z,33.90
2022-10-11T09:30:31.544Z,33.60
2022-10-11T09:33:07.988Z,33.70
2022-10-11T09:35:41.170Z,33.70
2022-10-11T09:38:26.498Z,33.70
2022-10-11T09:40:59.711Z,33.80
2022-10-11T09:43:27.212Z,34.20
2022-10-11T09:45:54.225Z,34.00
2022-10-11T09:48:25.102Z,33.90
2022-10-11T09:50:56.952Z,33.70
2022-10-11T09:53:49.987Z,34.30
2022-10-11T09:56:17.560Z,34.70
2022-10-11T09:58:47.131Z,35.00
2022-10-11T10:01:24.477Z,35.40
2022-10-11T10:04:12.239Z,35.90
2022-10-11T10:06:41.946Z,38.10
2022-10-11T10:09:29.572Z,37.20
2022-10-11T10:11:59.165Z,38.70
2022-10-11T10:14:32.967Z,39.60
2022-10-11T10:17:14.881Z,40.10
2022-10-11T10:19:51.718Z,40.00
2022-10-11T10:22:28.607Z,38.90
2022-10-11T10:24:57.369Z,39.20
2022-10-11T10:27:25.888Z,37.80
2022-10-11T10:30:19.190Z,37.90
2022-10-11T10:32:58.301Z,38.10
2022-10-11T10:35:34.076Z,37.70
2022-10-11T10:38:12.867Z,37.20
2022-10-11T10:40:52.271Z,37.00
2022-10-11T10:43:24.403Z,37.90
2022-10-11T10:46:11.788Z,38.10
2022-10-11T10:51:58.368Z,38.00
2022-10-11T10:55:07.749Z,38.30
2022-10-11T10:57:47.437Z,38.10
2022-10-11T11:00:21.164Z,38.90
2022-10-11T11:02:58.818Z,39.10
2022-10-11T11:05:46.010Z,38.80
2022-10-11T11:08:35.922Z,39.10
2022-10-11T11:11:06.098Z,39.40
2022-10-11T11:13:59.333Z,39.90
2022-10-11T11:17:02.751Z,40.00
2022-10-11T11:19:39.469Z,39.70
2022-10-11T11:22:22.411Z,40.50
2022-10-11T11:25:00.535Z,42.70
2022-10-11T11:27:43.160Z,45.00
2022-10-11T11:30:17.094Z,47.10
2022-10-11T11:35:27.149Z,49.40
2022-10-11T11:38:06.200Z,51.00
2022-10-11T11:40:40.986Z,52.10
2022-10-11T11:43:36.105Z,54.50
2022-10-11T11:46:17.651Z,55.50
2022-10-11T11:48:44.984Z,57.00
2022-10-11T11:51:32.585Z,58.00
2022-10-11T11:54:15.193Z,58.40
2022-10-11T11:56:45.165Z,59.90
2022-10-11T11:59:52.675Z,60.70
2022-10-11T12:02:34.958Z,61.30
2022-10-11T12:05:05.222Z,61.20
2022-10-11T12:07:46.306Z,61.50
2022-10-11T12:10:32.184Z,61.80
2022-10-11T12:13:31.193Z,62.80
2022-10-11T12:16:04.567Z,63.30
2022-10-11T12:18:35.627Z,63.00
2022-10-11T12:21:20.313Z,62.10
2022-10-11T12:23:52.098Z,63.00
2022-10-11T12:26:28.778Z,62.90
2022-10-11T12:29:28.230Z,64.00
2022-10-11T12:31:59.305Z,64.30
2022-10-11T12:37:19.855Z,65.40
2022-10-11T12:39:54.462Z,65.20
2022-10-11T12:42:28.800Z,64.90
2022-10-11T12:45:11.304Z,64.90
2022-10-11T12:47:53.552Z,64.80
2022-10-11T12:50:23.557Z,64.80
2022-10-11T12:52:53.685Z,64.70
2022-10-11T12:55:27.064Z,64.00
2022-10-11T12:57:54.357Z,64.10
2022-10-11T13:00:21.331Z,64.20
2022-10-11T13:02:51.279Z,63.50
2022-10-11T13:05:22.164Z,63.90
2022-10-11T13:07:50.207Z,65.00
2022-10-11T13:10:24.392Z,65.20
2022-10-11T13:12:53.279Z,63.70
2022-10-11T13:15:22.609Z,63.90
2022-10-11T13:17:49.914Z,64.40
2022-10-11T13:20:17.328Z,64.10
2022-10-11T13:22:50.523Z,64.30
2022-10-11T13:25:22.476Z,64.40
2022-10-11T13:27:51.699Z,64.10
2022-10-11T13:30:25.218Z,64.00
2022-10-11T13:32:53.393Z,63.70
2022-10-11T13:35:38.673Z,63.20
2022-10-11T13:38:23.876Z,62.50
2022-10-11T13:40:55.989Z,62.90
2022-10-11T13:43:28.666Z,64.90
2022-10-11T13:45:58.594Z,66.00
2022-10-11T13:48:31.470Z,66.90
2022-10-11T13:51:28.183Z,67.60
2022-10-11T13:54:13.611Z,67.90
2022-10-11T13:56:50.215Z,68.20
2022-10-11T13:59:22.837Z,68.40
2022-10-11T14:01:59.982Z,68.80
2022-10-11T14:04:29.888Z,68.70
2022-10-11T14:07:00.791Z,68.40
2022-10-11T14:09:34.547Z,68.60
2022-10-11T14:12:26.949Z,68.80
2022-10-11T14:14:56.707Z,69.30
2022-10-11T14:17:41.436Z,69.00
2022-10-11T14:20:11.897Z,69.20
2022-10-11T14:22:39.407Z,68.90
2022-10-11T14:25:09.111Z,69.00
2022-10-11T14:27:39.914Z,68.90
2022-10-11T14:30:27.570Z,69.20
2022-10-11T14:33:01.149Z,69.80
2022-10-11T14:35:32.361Z,70.30
2022-10-11T14:38:00.476Z,69.80
2022-10-11T14:40:29.690Z,69.90
2022-10-11T14:42:57.472Z,70.10
2022-10-11T14:45:26.238Z,69.80
2022-10-11T14:47:53.365Z,69.60
2022-10-11T14:50:43.076Z,69.60
2022-10-11T14:53:11.246Z,70.50
2022-10-11T14:55:40.173Z,70.60
2022-10-11T14:58:13.514Z,70.40
2022-10-11T15:00:41.254Z,71.00
2022-10-11T15:03:08.554Z,71.50
2022-10-11T15:05:37.096Z,71.10
2022-10-11T15:08:06.167Z,71.20
2022-10-11T15:10:40.848Z,71.30
2022-10-11T15:13:09.057Z,71.60
2022-10-11T15:15:38.499Z,72.00
2022-10-11T15:18:15.827Z,72.30
2022-10-11T15:20:45.911Z,72.80
2022-10-11T15:23:13.506Z,73.20
2022-10-11T15:25:45.250Z,73.50
2022-10-11T15:28:39.427Z,73.60
2022-10-11T15:31:06.838Z,74.30
2022-10-11T15:33:34.321Z,74.70
2022-10-11T15:36:01.393Z,75.20
2022-10-11T15:38:33.258Z,75.60
2022-10-11T15:41:00.811Z,75.50
2022-10-11T15:43:30.678Z,75.90
2022-10-11T15:45:58.351Z,76.10
2022-10-11T15:48:26.900Z,76.80
2022-10-11T15:50:56.342Z,77.30
2022-10-11T15:53:29.461Z,77.60
2022-10-11T15:56:03.341Z,78.10
2022-10-11T15:58:34.272Z,78.70
2022-10-11T16:01:07.340Z,78.30
2022-10-11T16:03:35.307Z,78.90
2022-10-11T16:06:05.838Z,79.40
2022-10-11T16:08:34.278Z,80.60
2022-10-11T16:11:02.515Z,80.70
2022-10-11T16:13:30.079Z,81.60
2022-10-11T16:15:57.918Z,82.20
2022-10-11T16:18:25.170Z,81.90
2022-10-11T16:20:52.886Z,82.50
2022-10-11T16:23:22.088Z,83.90
2022-10-11T16:26:00.142Z,84.90
2022-10-11T16:28:28.264Z,85.80
2022-10-11T16:30:56.268Z,86.40
2022-10-11T16:33:24.177Z,87.30
2022-10-11T16:35:51.498Z,89.40
2022-10-11T16:38:18.589Z,90.60
2022-10-11T16:40:48.267Z,91.30
2022-10-11T16:43:15.538Z,91.90
2022-10-11T16:45:45.341Z,93.20
2022-10-11T16:48:12.603Z,94.20
2022-10-11T16:50:39.949Z,95.60
2022-10-11T16:53:09.400Z,96.50
2022-10-11T16:55:39.595Z,97.30
2022-10-11T16:58:09.524Z,98.10
2022-10-11T17:00:41.660Z,99.50
2022-10-11T17:03:09.154Z,99.90
2022-10-11T17:05:36.710Z,99.90
2022-10-11T17:08:04.240Z,99.90
2022-10-11T17:10:33.734Z,99.90
2022-10-11T17:13:00.927Z,99.90
2022-10-11T17:15:32.885Z,99.90
2022-10-11T17:18:02.902Z,99.90
2022-10-11T17:20:30.430Z,99.90
2022-10-11T17:22:58.240Z,99.90
2022-10-11T17:25:27.967Z,99.90
2022-10-11T17:27:56.537Z,99.90
2022-10-11T17:30:24.851Z,99.90
2022-10-11T17:32:52.845Z,99.90
2022-10-11T17:35:22.490Z,99.90
2022-10-11T17:37:49.497Z,99.90
2022-10-11T17:40:17.303Z,99.90
2022-10-11T17:42:44.482Z,99.90
2022-10-11T17:45:14.018Z,99.90
2022-10-11T17:47:41.569Z,99.90
2022-10-11T17:50:10.902Z,99.90
2022-10-11T17:52:38.186Z,99.90
2022-10-11T17:55:05.743Z,99.90
2022-10-11T17:57:32.814Z,99.90
2022-10-11T18:00:03.458Z,99.90
2022-10-11T18:02:31.792Z,99.90
2022-10-11T18:04:58.823Z,99.90
2022-10-11T18:07:26.290Z,99.90
2022-10-11T18:09:53.450Z,99.90
2022-10-11T18:12:20.710Z,99.90
2022-10-11T18:14:47.697Z,99.90
2022-10-11T18:17:15.234Z,99.90
2022-10-11T18:19:42.387Z,99.90
2022-10-11T18:22:09.396Z,99.90
2022-10-11T18:24:36.759Z,99.90
2022-10-11T18:27:03.887Z,99.90
2022-10-11T18:29:30.850Z,99.90
2022-10-11T18:31:58.236Z,99.90
2022-10-11T18:34:25.335Z,99.90
2022-10-11T18:36:55.367Z,99.90
2022-10-11T18:39:22.718Z,99.90
2022-10-11T18:41:50.099Z,99.90
2022-10-11T18:44:17.090Z,99.90
2022-10-11T18:46:44.806Z,99.90
2022-10-11T18:49:14.479Z,99.90
2022-10-11T18:51:44.977Z,99.90
2022-10-11T18:54:15.287Z,99.90
2022-10-11T18:56:47.874Z,99.90
2022-10-11T18:59:15.638Z,99.90
2022-10-11T19:01:44.347Z,99.90
2022-10-11T19:04:13.148Z,99.90
2022-10-11T19:06:45.069Z,99.90
2022-10-11T19:09:18.857Z,99.90
2022-10-11T19:11:46.338Z,99.90
2022-10-11T19:14:15.505Z,99.90
2022-10-11T19:16:47.132Z,99.90
2022-10-11T19:19:14.511Z,99.90
2022-10-11T19:21:41.866Z,99.90
2022-10-11T19:24:09.402Z,99.90
2022-10-11T19:26:39.325Z,99.90
2022-10-11T19:29:12.506Z,99.90
2022-10-11T19:31:47.558Z,99.90
2022-10-11T19:34:17.148Z,99.90
2022-10-11T19:36:44.959Z,99.90
2022-10-11T19:39:16.182Z,99.90
2022-10-11T19:41:44.642Z,99.90
2022-10-11T19:44:13.533Z,99.90
2022-10-11T19:46:51.516Z,99.90
2022-10-11T19:49:23.703Z,99.90
2022-10-11T19:51:53.951Z,99.90
2022-10-11T19:54:21.481Z,99.90
2022-10-11T19:56:50.901Z,99.90
2022-10-11T19:59:18.541Z,99.90
2022-10-11T20:01:51.973Z,99.90
2022-10-11T20:07:10.686Z,99.90
2022-10-11T20:09:40.204Z,99.90
2022-10-11T20:12:10.388Z,99.90
2022-10-11T20:14:37.848Z,99.90
2022-10-11T20:17:05.165Z,99.90
2022-10-11T20:19:32.885Z,99.90
2022-10-11T20:22:01.408Z,99.90
2022-10-11T20:24:29.142Z,99.90
2022-10-11T20:26:56.524Z,99.90
2022-10-11T20:29:25.005Z,99.90
2022-10-11T20:31:52.422Z,99.90
2022-10-11T20:34:19.487Z,99.90
2022-10-11T20:36:49.534Z,99.90
2022-10-11T20:39:16.785Z,99.90
2022-10-11T20:41:44.026Z,99.90
2022-10-11T20:44:11.496Z,99.90
2022-10-11T20:46:42.051Z,99.90
2022-10-11T20:49:12.642Z,99.90
2022-10-11T20:51:41.641Z,99.90
2022-10-11T20:54:09.423Z,99.90
2022-10-11T20:56:37.157Z,99.90
2022-10-11T20:59:04.564Z,99.90
2022-10-11T21:01:37.075Z,99.90
2022-10-11T21:04:14.206Z,99.90
2022-10-11T21:06:43.725Z,99.90
2022-10-11T21:09:13.987Z,99.90
2022-10-11T21:11:43.745Z,99.90
2022-10-11T21:14:11.202Z,99.90
2022-10-11T21:16:38.428Z,99.90
2022-10-11T21:19:11.511Z,99.90
2022-10-11T21:21:38.708Z,99.90
2022-10-11T21:24:06.084Z,99.90
2022-10-11T21:26:35.879Z,99.90
2022-10-11T21:29:05.388Z,99.90
2022-10-11T21:31:34.449Z,99.90
2022-10-11T21:34:03.093Z,99.90
2022-10-11T21:36:30.264Z,99.90
2022-10-11T21:38:57.339Z,99.90
2022-10-11T21:41:27.835Z,99.90
2022-10-11T21:43:58.488Z,99.90
2022-10-11T21:46:47.485Z,99.90
2022-10-11T21:49:18.210Z,99.90
2022-10-11T21:51:45.678Z,99.90
2022-10-11T21:54:12.706Z,99.90
2022-10-11T21:56:40.286Z,99.90
2022-10-11T21:59:11.097Z,99.90
2022-10-11T22:01:39.901Z,99.90
2022-10-11T22:04:07.386Z,99.90
2022-10-11T22:06:35.082Z,99.90
2022-10-11T22:09:05.307Z,99.90
2022-10-11T22:11:35.074Z,99.90
2022-10-11T22:14:02.228Z,99.90
2022-10-11T22:16:29.417Z,99.90
2022-10-11T22:18:56.600Z,99.90
2022-10-11T22:21:24.633Z,99.90
2022-10-11T22:23:55.396Z,99.90
2022-10-11T22:26:26.027Z,99.90
2022-10-11T22:28:53.505Z,99.90
2022-10-11T22:31:23.214Z,99.90
2022-10-11T22:33:55.421Z,99.90
2022-10-11T22:36:26.076Z,99.90
2022-10-11T22:38:54.339Z,99.90
2022-10-11T22:41:21.392Z,99.90
2022-10-11T22:43:48.825Z,99.90
2022-10-11T22:46:16.627Z,99.90
2022-10-11T22:48:46.203Z,99.90
2022-10-11T22:51:15.532Z,99.90
2022-10-11T22:53:45.564Z,99.90
2022-10-11T22:56:12.872Z,99.90
2022-10-11T22:58:39.967Z,99.90
2022-10-11T23:01:09.271Z,99.90
2022-10-11T23:03:36.820Z,99.90
2022-10-11T23:06:04.821Z,99.90
2022-10-11T23:08:32.187Z,99.90
2022-10-11T23:11:08.201Z,99.90
2022-10-11T23:13:38.224Z,99.90
2022-10-11T23:16:09.949Z,99.90
2022-10-11T23:18:38.106Z,99.90
2022-10-11T23:21:06.285Z,99.90
2022-10-11T23:23:33.528Z,99.90
2022-10-11T23:26:21.440Z,99.90
2022-10-11T23:28:54.193Z,99.90
2022-10-11T23:31:22.000Z,99.90
2022-10-11T23:33:49.087Z,99.90
2022-10-11T23:36:21.658Z,99.90
2022-10-11T23:38:56.588Z,99.90
2022-10-11T23:41:28.902Z,99.90
2022-10-11T23:43:58.894Z,99.90
2022-10-11T23:46:25.863Z,99.90
2022-10-11T23:48:55.539Z,99.90
2022-10-11T23:51:23.089Z,99.90
2022-10-11T23:53:50.255Z,99.90
2022-10-11T23:56:19.760Z,99.90
2022-10-11T23:58:47.156Z,99.90
